createdAt,value
2022-11-17T00:06:43.952Z,69.08
2022-11-17T00:14:04.233Z,69.17
2022-11-17T00:21:22.000Z,69.51
2022-11-17T00:28:23.552Z,69.09
2022-11-17T00:35:25.099Z,69.58
2022-11-17T00:42:26.676Z,69.57
2022-11-17T00:49:28.305Z,68.70
2022-11-17T00:56:29.912Z,68.91
2022-11-17T01:03:31.469Z,68.86
2022-11-17T01:10:34.965Z,68.83
2022-11-17T01:17:36.565Z,68.84
2022-11-17T01:24:38.134Z,69.00
2022-11-17T01:31:43.232Z,68.78
2022-11-17T01:38:44.914Z,68.94
2022-11-17T01:45:46.456Z,70.15
2022-11-17T01:52:49.159Z,69.13
2022-11-17T01:59:59.349Z,69.95
2022-11-17T02:07:03.537Z,69.72
2022-11-17T02:14:05.387Z,69.54
2022-11-17T02:21:34.277Z,69.65
2022-11-17T02:28:37.170Z,69.92
2022-11-17T02:35:47.742Z,69.81
2022-11-17T02:43:52.752Z,70.05
2022-11-17T02:50:54.854Z,70.38
2022-11-17T02:57:56.470Z,70.13
2022-11-17T03:05:14.805Z,69.89
2022-11-17T03:12:21.680Z,69.98
2022-11-17T03:19:32.739Z,70.43
2022-11-17T03:26:37.506Z,70.12
2022-11-17T03:33:39.255Z,70.87
2022-11-17T03:40:41.369Z,70.72
2022-11-17T03:47:42.962Z,70.57
2022-11-17T03:54:44.565Z,70.39
2022-11-17T04:01:46.195Z,70.70
2022-11-17T04:08:47.862Z,70.68
2022-11-17T04:15:59.071Z,70.68
2022-11-17T04:23:06.973Z,71.36
2022-11-17T04:30:09.251Z,72.39
2022-11-17T04:37:17.324Z,72.42
2022-11-17T04:44:19.062Z,72.15
2022-11-17T04:51:20.991Z,72.14
2022-11-17T04:58:22.578Z,71.93
2022-11-17T05:05:24.174Z,72.30
2022-11-17T05:12:44.207Z,72.79
2022-11-17T05:19:46.698Z,73.05
2022-11-17T05:26:48.819Z,73.47
2022-11-17T05:33:50.608Z,72.89
2022-11-17T05:40:52.162Z,73.06
2022-11-17T05:47:53.707Z,72.69
2022-11-17T05:54:57.417Z,73.00
2022-11-17T06:02:07.387Z,73.19
2022-11-17T06:09:08.935Z,73.51
2022-11-17T06:16:10.956Z,73.70
2022-11-17T06:23:12.556Z,73.71
2022-11-17T06:30:14.181Z,73.75
2022-11-17T06:37:15.752Z,73.90
2022-11-17T06:44:17.317Z,74.20
2022-11-17T06:51:18.993Z,73.75
2022-11-17T06:58:20.590Z,74.14
2022-11-17T07:05:22.121Z,73.61
2022-11-17T07:12:23.687Z,73.22
2022-11-17T07:19:25.273Z,73.29
2022-11-17T07:26:26.837Z,73.62
2022-11-17T07:33:28.434Z,72.91
2022-11-17T07:40:30.067Z,73.23
2022-11-17T07:47:31.641Z,73.00
2022-11-17T07:54:33.194Z,73.20
2022-11-17T08:01:34.894Z,72.99
2022-11-17T08:08:37.866Z,72.36
2022-11-17T08:15:41.997Z,72.32
2022-11-17T08:22:44.143Z,72.18
2022-11-17T08:29:45.723Z,71.50
2022-11-17T08:36:47.287Z,71.26
2022-11-17T08:43:50.276Z,71.32
2022-11-17T08:50:51.967Z,71.09
2022-11-17T08:57:53.515Z,70.90
2022-11-17T09:04:55.076Z,71.29
2022-11-17T09:11:56.881Z,71.61
2022-11-17T09:18:58.519Z,71.29
2022-11-17T09:26:22.561Z,71.08
2022-11-17T09:33:24.203Z,71.06
2022-11-17T09:40:25.891Z,71.25
2022-11-17T09:47:50.427Z,71.39
2022-11-17T09:55:17.719Z,71.08
2022-11-17T10:02:19.586Z,71.59
2022-11-17T10:09:35.473Z,71.46
2022-11-17T10:16:37.652Z,71.23
2022-11-17T10:23:47.036Z,71.18
2022-11-17T10:30:54.318Z,70.96
2022-11-17T10:37:57.376Z,70.99
2022-11-17T10:44:59.788Z,70.56
2022-11-17T10:52:19.722Z,71.31
2022-11-17T10:59:31.885Z,71.27
2022-11-17T11:06:34.138Z,70.89
2022-11-17T11:13:45.874Z,71.24
2022-11-17T11:21:18.037Z,70.88
2022-11-17T11:28:22.585Z,71.00
2022-11-17T11:36:15.464Z,70.48
2022-11-17T11:43:32.656Z,70.32
2022-11-17T11:50:48.863Z,70.52
2022-11-17T11:58:12.907Z,70.11
2022-11-17T12:05:24.329Z,70.16
2022-11-17T12:12:34.186Z,70.07
2022-11-17T12:19:48.524Z,69.89
2022-11-17T12:26:50.075Z,69.61
2022-11-17T12:33:55.384Z,69.63
2022-11-17T12:40:56.970Z,69.52
2022-11-17T12:48:26.435Z,69.47
2022-11-17T12:55:34.417Z,68.68
2022-11-17T13:02:42.780Z,69.42
2022-11-17T13:09:44.359Z,69.25
2022-11-17T13:16:48.107Z,69.33
2022-11-17T13:23:49.760Z,69.19
2022-11-17T13:30:51.319Z,68.88
2022-11-17T13:38:11.347Z,69.25
2022-11-17T13:45:16.126Z,68.79
2022-11-17T13:52:37.000Z,68.59
2022-11-17T13:59:40.872Z,68.34
2022-11-17T14:07:12.065Z,68.37
2022-11-17T14:14:14.135Z,68.44
2022-11-17T14:21:16.568Z,68.43
2022-11-17T14:28:19.598Z,68.56
2022-11-17T14:35:21.145Z,68.03
2022-11-17T14:42:22.766Z,68.33
2022-11-17T14:49:24.364Z,68.54
2022-11-17T14:56:26.010Z,68.36
2022-11-17T15:03:27.594Z,68.22
2022-11-17T15:10:29.144Z,68.42
2022-11-17T15:17:30.733Z,69.04
2022-11-17T15:24:32.300Z,69.09
2022-11-17T15:31:33.890Z,68.72
2022-11-17T15:38:36.148Z,68.79
2022-11-17T15:45:37.734Z,68.75
2022-11-17T15:53:03.050Z,68.84
2022-11-17T16:00:00.997Z,69.22
2022-11-17T16:07:04.163Z,69.59
2022-11-17T16:14:05.892Z,70.34
2022-11-17T16:21:12.459Z,72.42
2022-11-17T16:28:14.087Z,72.97
2022-11-17T16:35:15.668Z,74.17
2022-11-17T16:42:17.205Z,74.33
2022-11-17T16:49:19.507Z,75.28
2022-11-17T16:56:21.480Z,76.22
2022-11-17T17:03:23.425Z,76.29
2022-11-17T17:10:25.090Z,76.24
2022-11-17T17:17:26.749Z,75.93
2022-11-17T17:24:28.412Z,75.81
2022-11-17T17:31:32.174Z,75.65
2022-11-17T17:38:33.954Z,76.19
2022-11-17T17:45:37.782Z,76.47
2022-11-17T17:52:39.359Z,76.53
2022-11-17T17:59:40.913Z,76.60
2022-11-17T18:06:43.689Z,75.76
2022-11-17T18:13:46.685Z,75.27
2022-11-17T18:20:48.474Z,75.47
2022-11-17T18:27:51.470Z,75.69
2022-11-17T18:34:53.026Z,76.67
2022-11-17T18:41:54.705Z,76.43
2022-11-17T18:48:56.661Z,76.32
2022-11-17T18:56:02.612Z,76.17
2022-11-17T19:03:04.186Z,75.50
2022-11-17T19:10:06.045Z,76.22
2022-11-17T19:17:07.592Z,76.58
2022-11-17T19:24:09.206Z,76.72
2022-11-17T19:31:12.444Z,76.57
2022-11-17T19:38:14.033Z,76.16
2022-11-17T19:45:16.571Z,76.40
2022-11-17T19:52:18.606Z,75.59
2022-11-17T19:59:20.346Z,76.06
2022-11-17T20:06:23.597Z,75.96
2022-11-17T20:13:25.162Z,75.72
2022-11-17T20:20:27.007Z,75.43
2022-11-17T20:27:28.578Z,75.47
2022-11-17T20:34:30.136Z,74.72
2022-11-17T20:41:31.676Z,74.98
2022-11-17T20:48:35.127Z,74.64
2022-11-17T20:55:38.195Z,74.02
2022-11-17T21:02:39.746Z,74.34
2022-11-17T21:09:41.290Z,74.07
2022-11-17T21:16:45.516Z,74.28
2022-11-17T21:23:47.191Z,74.29
2022-11-17T21:30:48.787Z,74.72
2022-11-17T21:37:50.370Z,74.99
2022-11-17T21:44:51.977Z,74.58
2022-11-17T21:51:53.592Z,74.61
2022-11-17T21:58:58.771Z,74.01
2022-11-17T22:06:13.942Z,73.90
2022-11-17T22:13:15.587Z,74.66
2022-11-17T22:20:17.194Z,73.80
2022-11-17T22:27:18.778Z,73.80
2022-11-17T22:34:20.422Z,74.40
2022-11-17T22:41:22.162Z,75.13
2022-11-17T22:48:23.774Z,74.63
2022-11-17T22:55:25.309Z,74.78
2022-11-17T23:02:26.886Z,75.25
2022-11-17T23:09:28.447Z,74.98
2022-11-17T23:16:30.068Z,75.16
2022-11-17T23:23:36.061Z,75.08
2022-11-17T23:30:37.650Z,75.27
2022-11-17T23:37:40.274Z,74.76
2022-11-17T23:44:41.866Z,75.13
2022-11-17T23:51:43.450Z,76.44
2022-11-17T23:58:45.013Z,76.38
